ADDS METAR Data INFO
IDs: Format: Raw Decoded Include TAF

Data at: 0858 UTC 19 Jun 2018

KMKL 190853Z AUTO 00000KT 10SM CLR 22/22 A3007 RMK AO2 SLP177 T02220217 55005
KMKL 190753Z AUTO 00000KT 10SM CLR 23/22 A3007 RMK AO2 SLP176 T02280217
KMKL 190653Z AUTO 21003KT 10SM CLR 23/22 A3008 RMK AO2 SLP179 T02280217
KMKL 190553Z AUTO 21006KT 10SM CLR 24/22 A3009 RMK AO2 SLP183 T02390217 10317 20233 403390217 50005
KMKL 190453Z AUTO 20004KT 10SM CLR 24/22 A3009 RMK AO2 SLP184 T02390222
KMKL 190353Z AUTO 22004KT 10SM CLR 26/22 A3008 RMK AO2 SLP181 T02560217
KMKL 190253Z AUTO 20004KT 10SM CLR 24/23 A3007 RMK AO2 SLP177 T02440228 53008
KMKL 190153Z AUTO 19004KT 10SM CLR 27/23 A3005 RMK AO2 SLP169 T02670228
KMKL 190053Z AUTO 21004KT 10SM CLR 28/23 A3005 RMK AO2 SLP170 T02830228
KMKL 182353Z AUTO 22005KT 10SM CLR 32/22 A3004 RMK AO2 SLP168 T03170222 10339 20311 56013
KMKL 182253Z 21005KT 10SM FEW080 32/22 A3005 RMK AO2 SLP171 T03220217
KMKL 182153Z 23006KT 10SM CLR 32/20 A3007 RMK AO2 SLP178 T03170200
KMKL 182053Z VRB05KT 10SM FEW060 33/21 A3008 RMK AO2 SLP181 T03330206 58019
KMKL 181953Z 26005KT 10SM CLR 33/20 A3010 RMK AO2 SLP188 T03330200
KMKL 181853Z 27006KT 10SM SCT049 BKN060 32/21 A3012 RMK AO2 SLP195 T03170211
KMKL 181753Z 29006KT 10SM BKN043 32/21 A3014 RMK AO2 SLP201 T03170211 10328 20233 58008
KMKL 181653Z VRB03KT 10SM CLR 32/22 A3015 RMK AO2 SLP205 T03170217
KMKL 181553Z 23008KT 10SM CLR 31/22 A3016 RMK AO2 SLP208 T03060222
KMKL 181453Z 24008KT 10SM CLR 29/23 A3017 RMK AO2 SLP209 T02890228 51010
KMKL 181353Z 23008KT 10SM CLR 28/23 A3017 RMK AO2 SLP209 T02780228
KMKL 181253Z 21007KT 10SM CLR 26/23 A3015 RMK AO2 SLP205 T02610228
KMKL 181153Z 18004KT 10SM CLR 23/22 A3013 RMK AO2 SLP199 T02330222 10244 20217 52015
KMKL 181053Z AUTO 00000KT 10SM CLR 22/22 A3012 RMK AO2 SLP194 T02170217
KMKL 180953Z AUTO 00000KT 10SM CLR 23/22 A3011 RMK AO2 SLP189 T02280217
KMKL 180853Z AUTO 20003KT 10SM CLR 23/22 A3009 RMK AO2 SLP183 T02280222 55002
KMKL 180753Z AUTO 00000KT 10SM CLR 23/22 A3008 RMK AO2 SLP179 T02330222
KMKL 180653Z AUTO 21005KT 10SM CLR 24/22 A3009 RMK AO2 SLP182 T02390217
KMKL 180553Z AUTO 19006KT 10SM CLR 24/21 A3010 RMK AO2 SLP185 T02440211 10272 20239 403440228 58004
KMKL 180453Z AUTO 20004KT 10SM CLR 25/21 A3011 RMK AO2 SLP189 T02500211
KMKL 180353Z AUTO 21009KT 10SM CLR 26/22 A3010 RMK AO2 SLP186 T02560217
KMKL 180253Z AUTO 16007KT 10SM FEW120 26/22 A3011 RMK AO2 SLP190 T02610217 53014
KMKL 180153Z AUTO 15006KT 10SM CLR 26/23 A3008 RMK AO2 SLP182 T02560228
KMKL 180053Z AUTO 00000KT 10SM CLR 26/23 A3005 RMK AO2 SLP169 T02610228
KMKL 180005Z AUTO 00000KT 10SM SCT070 SCT085 27/23 A3007 RMK AO2 LTG DSNT NW-NE T02720228
KMKL 172353Z AUTO 02003KT 10SM VCTS BKN075 BKN120 27/23 A3007 RMK AO2 LTG DSNT ALQDS RAB10E25 TSE25 SLP176 P0000 60000 T02670228 10344 20261 53007
KMKL 172331Z 08006KT 10SM VCTS BKN120 27/23 A3007 RMK AO2 LTG DSNT N-SE RAB10E25 TSE25 P0000 T02670228
KMKL 172253Z 18008KT 10SM TS FEW050 FEW060 SCT075 29/21 A3005 RMK AO2 LTG DSNT E-SW TSB43 SLP171 T02940211
KMKL 172249Z 19010KT 10SM TS FEW050 FEW060 SCT075 29/21 A3005 RMK AO2 LTG DSNT E-SW TSB43
KMKL 172234Z 19015G20KT 10SM VCTS FEW050 SCT060 30/21 A3005 RMK AO2 LTG DSNT SE AND SW T03000211
KMKL 172153Z VRB04KT 10SM CLR 34/23 A3005 RMK AO2 LTG DSNT SE-SW SLP167 T03390228